createdAt,value
2022-11-28T00:00:22.398Z,8.50
2022-11-28T00:00:54.091Z,6.80
2022-11-28T00:01:27.219Z,9.70
2022-11-28T00:01:58.807Z,10.38
2022-11-28T00:02:30.398Z,6.30
2022-11-28T00:03:01.998Z,7.00
2022-11-28T00:03:33.996Z,8.10
2022-11-28T00:04:06.257Z,10.68
2022-11-28T00:04:37.842Z,7.85
2022-11-28T00:05:12.564Z,7.65
2022-11-28T00:05:47.035Z,7.93
2022-11-28T00:06:19.271Z,8.25
2022-11-28T00:06:51.061Z,9.68
2022-11-28T00:07:22.889Z,7.45
2022-11-28T00:07:55.679Z,10.18
2022-11-28T00:08:27.313Z,7.72
2022-11-28T00:08:59.789Z,6.93
2022-11-28T00:09:31.244Z,8.80
2022-11-28T00:10:03.512Z,8.55
2022-11-28T00:10:39.354Z,8.85
2022-11-28T00:11:12.553Z,9.43
2022-11-28T00:11:45.630Z,8.98
2022-11-28T00:12:17.097Z,11.15
2022-11-28T00:12:48.569Z,11.25
2022-11-28T00:13:20.031Z,8.65
2022-11-28T00:13:51.511Z,7.72
2022-11-28T00:14:23.033Z,9.45
2022-11-28T00:14:55.170Z,10.77
2022-11-28T00:15:26.769Z,8.73
2022-11-28T00:15:59.855Z,7.15
2022-11-28T00:16:31.466Z,8.02
2022-11-28T00:17:03.213Z,7.75
2022-11-28T00:17:34.683Z,10.80
2022-11-28T00:18:06.158Z,7.55
2022-11-28T00:18:37.641Z,8.68
2022-11-28T00:19:10.871Z,8.00
2022-11-28T00:19:42.387Z,6.80
2022-11-28T00:20:13.880Z,7.78
2022-11-28T00:20:45.395Z,9.05
2022-11-28T00:21:17.497Z,10.57
2022-11-28T00:21:49.001Z,8.15
2022-11-28T00:22:20.489Z,7.63
2022-11-28T00:22:52.245Z,6.90
2022-11-28T00:23:23.775Z,10.38
2022-11-28T00:23:55.236Z,6.13
2022-11-28T00:24:26.783Z,8.18
2022-11-28T00:24:58.343Z,9.00
2022-11-28T00:25:29.790Z,9.43
2022-11-28T00:26:04.060Z,7.30
2022-11-28T00:26:40.994Z,9.63
2022-11-28T00:27:12.468Z,10.70
2022-11-28T00:27:44.054Z,10.75
2022-11-28T00:28:15.513Z,6.45
2022-11-28T00:28:47.247Z,6.65
2022-11-28T00:29:18.717Z,11.73
2022-11-28T00:29:50.288Z,6.70
2022-11-28T00:30:21.775Z,8.82
2022-11-28T00:30:53.256Z,9.43
2022-11-28T00:31:30.320Z,7.93
2022-11-28T00:32:01.947Z,6.57
2022-11-28T00:32:33.470Z,7.95
2022-11-28T00:33:05.052Z,7.13
2022-11-28T00:33:36.590Z,7.30
2022-11-28T00:34:09.653Z,10.25
2022-11-28T00:34:41.442Z,11.57
2022-11-28T00:35:13.433Z,10.05
2022-11-28T00:35:44.937Z,7.20
2022-11-28T00:36:16.841Z,7.93
2022-11-28T00:36:48.777Z,9.82
2022-11-28T00:37:20.264Z,10.70
2022-11-28T00:37:51.758Z,9.35
2022-11-28T00:38:23.178Z,7.82
2022-11-28T00:38:54.868Z,9.30
2022-11-28T00:39:26.333Z,9.35
2022-11-28T00:39:57.807Z,14.23
2022-11-28T00:40:29.261Z,10.73
2022-11-28T00:41:02.528Z,10.98
2022-11-28T00:41:35.276Z,9.60
2022-11-28T00:42:06.723Z,9.40
2022-11-28T00:42:38.220Z,9.48
2022-11-28T00:43:11.595Z,7.78
2022-11-28T00:43:44.195Z,8.05
2022-11-28T00:44:15.729Z,8.95
2022-11-28T00:44:47.509Z,6.93
2022-11-28T00:45:19.126Z,7.32
2022-11-28T00:45:50.768Z,7.65
2022-11-28T00:46:23.457Z,11.55
2022-11-28T00:46:54.943Z,10.63
2022-11-28T00:47:26.414Z,8.13
2022-11-28T00:47:57.907Z,7.82
2022-11-28T00:48:29.393Z,7.35
2022-11-28T00:49:00.894Z,10.35
2022-11-28T00:49:32.402Z,10.60
2022-11-28T00:50:04.361Z,8.40
2022-11-28T00:50:35.876Z,12.13
2022-11-28T00:51:12.777Z,12.82
2022-11-28T00:51:44.262Z,7.47
2022-11-28T00:52:15.744Z,8.77
2022-11-28T00:52:47.217Z,8.40
2022-11-28T00:53:18.767Z,7.15
2022-11-28T00:53:51.710Z,9.73
2022-11-28T00:54:23.143Z,8.57
2022-11-28T00:54:54.749Z,7.28
2022-11-28T00:55:26.183Z,7.72
2022-11-28T00:55:57.648Z,8.57
2022-11-28T00:56:31.843Z,6.88
2022-11-28T00:57:03.320Z,7.93
2022-11-28T00:57:34.820Z,7.57
2022-11-28T00:58:06.306Z,7.90
2022-11-28T00:58:39.052Z,7.55
2022-11-28T00:59:10.640Z,9.48
2022-11-28T00:59:42.068Z,10.02
2022-11-28T01:00:14.160Z,8.43
2022-11-28T01:00:45.651Z,9.80
2022-11-28T01:01:25.127Z,7.20
2022-11-28T01:01:56.743Z,7.63
2022-11-28T01:02:28.318Z,8.65
2022-11-28T01:02:59.970Z,9.23
2022-11-28T01:03:31.435Z,7.70
2022-11-28T01:04:06.558Z,9.13
2022-11-28T01:04:38.038Z,8.27
2022-11-28T01:05:09.512Z,7.13
2022-11-28T01:05:41.998Z,7.07
2022-11-28T01:06:20.848Z,10.02
2022-11-28T01:06:52.371Z,7.88
2022-11-28T01:07:23.927Z,8.75
2022-11-28T01:07:55.464Z,11.23
2022-11-28T01:08:27.658Z,10.07
2022-11-28T01:09:02.001Z,9.77
2022-11-28T01:09:33.545Z,9.15
2022-11-28T01:10:05.558Z,9.02
2022-11-28T01:10:44.735Z,10.02
2022-11-28T01:11:16.284Z,9.63
2022-11-28T01:11:49.541Z,9.73
2022-11-28T01:12:21.105Z,8.07
2022-11-28T01:12:52.545Z,8.70
2022-11-28T01:13:24.211Z,8.57
2022-11-28T01:13:58.568Z,11.63
2022-11-28T01:14:30.523Z,8.70
2022-11-28T01:15:01.992Z,10.52
2022-11-28T01:15:33.450Z,11.57
2022-11-28T01:16:05.204Z,6.65
2022-11-28T01:16:36.963Z,9.07
2022-11-28T01:17:09.069Z,8.18
2022-11-28T01:17:40.608Z,9.27
2022-11-28T01:18:12.092Z,9.50
2022-11-28T01:18:43.607Z,8.57
2022-11-28T01:19:15.206Z,9.43
2022-11-28T01:19:46.655Z,7.78
2022-11-28T01:20:18.217Z,9.40
2022-11-28T01:20:49.704Z,7.10
2022-11-28T01:21:21.623Z,8.50
2022-11-28T01:21:53.230Z,8.88
2022-11-28T01:22:24.685Z,8.10
2022-11-28T01:22:56.215Z,9.32
2022-11-28T01:23:27.826Z,7.90
2022-11-28T01:23:59.302Z,9.85
2022-11-28T01:24:30.773Z,10.10
2022-11-28T01:25:02.262Z,7.22
2022-11-28T01:25:33.706Z,12.57
2022-11-28T01:26:07.117Z,7.45
2022-11-28T01:26:40.176Z,7.47
2022-11-28T01:27:11.786Z,10.10
2022-11-28T01:27:43.241Z,8.25
2022-11-28T01:28:14.706Z,8.85
2022-11-28T01:28:46.891Z,7.97
2022-11-28T01:29:18.562Z,9.75
2022-11-28T01:29:50.352Z,9.20
2022-11-28T01:30:21.817Z,9.52
2022-11-28T01:30:53.269Z,9.27
2022-11-28T01:31:27.071Z,8.50
2022-11-28T01:31:58.660Z,10.27
2022-11-28T01:32:30.614Z,10.90
2022-11-28T01:33:02.077Z,10.35
2022-11-28T01:33:33.753Z,9.95
2022-11-28T01:34:05.250Z,8.40
2022-11-28T01:34:36.873Z,8.18
2022-11-28T01:35:08.842Z,10.02
2022-11-28T01:35:40.317Z,8.55
2022-11-28T01:36:12.910Z,9.43
2022-11-28T01:36:44.383Z,8.38
2022-11-28T01:37:15.838Z,10.00
2022-11-28T01:37:47.360Z,9.80
2022-11-28T01:38:18.788Z,6.90
2022-11-28T01:38:50.416Z,7.63
2022-11-28T01:39:21.865Z,7.28
2022-11-28T01:39:53.375Z,8.82
2022-11-28T01:40:25.201Z,7.10
2022-11-28T01:40:56.808Z,10.90
2022-11-28T01:41:28.810Z,12.07
2022-11-28T01:42:00.326Z,8.75
2022-11-28T01:42:31.949Z,10.10
2022-11-28T01:43:03.601Z,9.20
2022-11-28T01:43:35.961Z,8.70
2022-11-28T01:44:27.462Z,9.50
2022-11-28T01:45:34.126Z,9.20
2022-11-28T01:46:05.660Z,14.95
2022-11-28T01:46:37.471Z,9.82
2022-11-28T01:47:09.124Z,8.45
2022-11-28T01:47:41.167Z,6.95
2022-11-28T01:48:16.013Z,7.60
2022-11-28T01:48:47.673Z,6.85
2022-11-28T01:49:24.565Z,7.65
2022-11-28T01:49:56.192Z,6.70
2022-11-28T01:50:29.126Z,9.10
2022-11-28T01:51:02.445Z,8.02
2022-11-28T01:51:34.539Z,9.90
2022-11-28T01:52:10.185Z,7.88
2022-11-28T01:52:45.051Z,9.32
2022-11-28T01:53:16.929Z,7.43
2022-11-28T01:53:48.798Z,7.85
2022-11-28T01:54:23.021Z,10.32
2022-11-28T01:54:57.753Z,9.13
2022-11-28T01:55:34.082Z,8.23
2022-11-28T01:56:21.127Z,9.05
2022-11-28T01:56:59.210Z,7.72
2022-11-28T01:57:30.832Z,10.00
2022-11-28T01:58:02.331Z,8.68
2022-11-28T01:58:35.132Z,10.32
2022-11-28T01:59:08.045Z,11.00
2022-11-28T01:59:43.715Z,7.10
2022-11-28T02:00:18.753Z,7.88
2022-11-28T02:00:50.324Z,10.63
2022-11-28T02:01:24.348Z,8.07
2022-11-28T02:01:55.929Z,7.78
2022-11-28T02:02:35.162Z,12.15
2022-11-28T02:03:10.582Z,11.35
2022-11-28T02:03:47.377Z,8.45
2022-11-28T02:04:18.959Z,9.52
2022-11-28T02:04:50.589Z,7.25
2022-11-28T02:05:22.670Z,8.27
2022-11-28T02:05:54.304Z,8.15
2022-11-28T02:06:26.186Z,7.53
2022-11-28T02:06:57.666Z,7.93
2022-11-28T02:07:29.167Z,8.75
2022-11-28T02:08:00.810Z,7.00
2022-11-28T02:08:35.903Z,8.38
2022-11-28T02:09:13.715Z,9.43
2022-11-28T02:09:45.488Z,9.40
2022-11-28T02:10:21.168Z,7.47
2022-11-28T02:11:06.000Z,9.15
2022-11-28T02:11:43.190Z,7.32
2022-11-28T02:12:23.536Z,9.48
2022-11-28T02:12:59.842Z,13.10
2022-11-28T02:13:40.862Z,7.10
2022-11-28T02:15:18.232Z,7.18
2022-11-28T02:16:10.892Z,8.73
2022-11-28T02:17:03.208Z,9.52
2022-11-28T02:17:41.147Z,8.68
2022-11-28T02:18:24.577Z,8.27
2022-11-28T02:19:33.318Z,7.03
2022-11-28T02:20:43.277Z,8.07
2022-11-28T02:21:26.842Z,7.13
2022-11-28T02:22:01.442Z,7.72
2022-11-28T02:22:46.900Z,7.55
2022-11-28T02:23:24.672Z,9.93
2022-11-28T02:24:23.926Z,9.85
2022-11-28T02:25:20.168Z,7.97
2022-11-28T02:26:22.719Z,7.13
2022-11-28T02:27:14.460Z,9.23
2022-11-28T02:28:19.046Z,8.70
2022-11-28T02:29:38.302Z,8.32
2022-11-28T02:30:15.016Z,8.07
2022-11-28T02:31:12.860Z,15.05
2022-11-28T02:32:02.562Z,8.45
2022-11-28T02:32:49.021Z,10.70
2022-11-28T02:33:32.037Z,9.50
2022-11-28T02:34:09.556Z,9.50
2022-11-28T02:34:50.748Z,9.48
2022-11-28T02:35:32.745Z,7.65
2022-11-28T02:36:18.598Z,12.35
2022-11-28T02:37:06.220Z,12.90
2022-11-28T02:37:45.402Z,8.85
2022-11-28T02:38:23.615Z,12.30
2022-11-28T02:39:13.219Z,11.93
2022-11-28T02:39:54.280Z,9.52
2022-11-28T02:40:38.017Z,8.30
2022-11-28T02:41:12.233Z,8.43
2022-11-28T02:42:09.299Z,9.05
2022-11-28T02:42:48.203Z,13.60
2022-11-28T02:43:52.453Z,11.90
2022-11-28T02:44:33.805Z,9.23
2022-11-28T02:45:28.237Z,8.50
2022-11-28T02:46:36.552Z,11.75
2022-11-28T02:47:27.849Z,7.65
2022-11-28T02:48:03.901Z,10.70
2022-11-28T02:48:44.022Z,9.02
2022-11-28T02:49:20.668Z,8.63
2022-11-28T02:50:14.070Z,14.65
2022-11-28T02:50:52.676Z,12.10
2022-11-28T02:51:31.577Z,10.35
2022-11-28T02:52:29.933Z,7.82
2022-11-28T02:53:13.193Z,8.35
2022-11-28T02:53:46.321Z,11.05
2022-11-28T02:54:18.606Z,11.82
2022-11-28T02:54:51.034Z,11.30
2022-11-28T02:55:23.232Z,9.40
2022-11-28T02:55:55.090Z,9.77
2022-11-28T02:56:26.749Z,11.02
2022-11-28T02:56:58.553Z,9.85
2022-11-28T02:57:41.564Z,14.10
2022-11-28T02:58:13.131Z,9.38
2022-11-28T02:58:44.611Z,13.88
2022-11-28T02:59:44.279Z,10.30
2022-11-28T03:00:45.935Z,9.43
2022-11-28T03:01:21.581Z,12.55
2022-11-28T03:01:53.221Z,12.10
2022-11-28T03:02:32.303Z,9.05
2022-11-28T03:03:14.390Z,11.13
2022-11-28T03:04:16.092Z,8.52
2022-11-28T03:05:08.213Z,8.27
2022-11-28T03:05:47.745Z,11.98
2022-11-28T03:06:32.682Z,8.30
2022-11-28T03:07:30.465Z,8.23
2022-11-28T03:08:17.521Z,8.50
2022-11-28T03:08:54.883Z,9.88
2022-11-28T03:09:42.782Z,17.55
2022-11-28T03:10:53.953Z,10.90
2022-11-28T03:11:34.993Z,9.20
2022-11-28T03:13:10.595Z,9.50
2022-11-28T03:13:50.218Z,10.80
2022-11-28T03:14:49.550Z,10.73
2022-11-28T03:15:26.780Z,10.25
2022-11-28T03:16:27.659Z,10.98
2022-11-28T03:17:18.936Z,8.88
2022-11-28T03:17:59.175Z,9.27
2022-11-28T03:18:55.531Z,10.57
2022-11-28T03:19:28.053Z,12.65
2022-11-28T03:20:02.289Z,11.10
2022-11-28T03:21:00.282Z,11.68
2022-11-28T03:21:55.801Z,8.35
2022-11-28T03:22:29.901Z,8.80
2022-11-28T03:23:20.530Z,21.85
2022-11-28T03:23:56.587Z,9.60
2022-11-28T03:24:43.385Z,11.85
2022-11-28T03:25:39.302Z,9.60
2022-11-28T03:26:30.552Z,8.25
2022-11-28T03:27:07.764Z,7.72
2022-11-28T03:27:45.428Z,8.63
2022-11-28T03:28:24.312Z,9.25
2022-11-28T03:29:01.402Z,11.57
2022-11-28T03:29:40.157Z,10.38
2022-11-28T03:30:16.973Z,8.90
2022-11-28T03:30:53.234Z,8.93
2022-11-28T03:31:30.692Z,8.30
2022-11-28T03:32:06.699Z,8.25
2022-11-28T03:32:38.894Z,9.02
2022-11-28T03:33:12.813Z,9.68
2022-11-28T03:33:52.834Z,11.07
2022-11-28T03:34:29.013Z,8.02
2022-11-28T03:35:06.740Z,12.45
2022-11-28T03:35:43.417Z,7.90
2022-11-28T03:36:18.447Z,10.00
2022-11-28T03:37:03.444Z,7.70
2022-11-28T03:37:38.328Z,10.23
2022-11-28T03:38:40.339Z,12.73
2022-11-28T03:39:14.933Z,9.27
2022-11-28T03:39:50.560Z,9.48
2022-11-28T03:40:25.310Z,9.15
2022-11-28T03:40:59.601Z,8.98
2022-11-28T03:41:34.916Z,10.07
2022-11-28T03:42:29.481Z,8.85
2022-11-28T03:43:04.045Z,10.27
2022-11-28T03:43:41.908Z,10.25
2022-11-28T03:44:23.597Z,9.63
2022-11-28T03:45:10.579Z,16.17
2022-11-28T03:45:49.658Z,10.68
2022-11-28T03:46:24.026Z,10.95
2022-11-28T03:46:58.011Z,10.73
2022-11-28T03:47:34.412Z,9.93
2022-11-28T03:48:13.822Z,12.93
2022-11-28T03:48:47.573Z,10.25
2022-11-28T03:49:32.045Z,11.57
2022-11-28T03:50:09.045Z,13.30
2022-11-28T03:50:44.868Z,12.05
2022-11-28T03:51:18.984Z,11.07
2022-11-28T03:51:56.753Z,9.82
2022-11-28T03:52:31.951Z,13.30
2022-11-28T03:53:06.573Z,15.20
2022-11-28T03:54:08.097Z,10.45
2022-11-28T03:54:49.950Z,10.48
2022-11-28T03:55:43.872Z,11.93
2022-11-28T03:56:22.174Z,10.82
2022-11-28T03:57:02.377Z,11.07
2022-11-28T03:57:37.518Z,14.73
2022-11-28T03:58:18.197Z,12.32
2022-11-28T03:58:55.007Z,12.68
2022-11-28T03:59:32.387Z,12.57
2022-11-28T04:00:08.569Z,10.88
2022-11-28T04:00:51.993Z,11.63
2022-11-28T04:01:34.407Z,11.35
2022-11-28T04:02:28.294Z,14.90
2022-11-28T04:03:11.833Z,11.57
2022-11-28T04:03:58.513Z,12.23
2022-11-28T04:04:46.067Z,13.90
2022-11-28T04:05:23.608Z,18.95
2022-11-28T04:06:02.422Z,15.05
2022-11-28T04:07:00.153Z,13.50
2022-11-28T04:07:37.450Z,10.05
2022-11-28T04:08:14.241Z,13.45
2022-11-28T04:08:50.325Z,13.40
2022-11-28T04:09:48.228Z,17.45
2022-11-28T04:10:33.562Z,16.88
2022-11-28T04:11:13.655Z,13.45
2022-11-28T04:11:51.508Z,14.25
2022-11-28T04:12:51.719Z,11.73
2022-11-28T04:13:32.233Z,13.63
2022-11-28T04:14:10.049Z,15.07
2022-11-28T04:14:47.806Z,12.45
2022-11-28T04:15:54.589Z,14.40
2022-11-28T04:16:36.524Z,11.70
2022-11-28T04:17:17.509Z,14.40
2022-11-28T04:18:40.112Z,11.63
2022-11-28T04:19:17.076Z,11.40
2022-11-28T04:19:55.258Z,12.10
2022-11-28T04:20:26.702Z,13.77
2022-11-28T04:21:08.835Z,14.48
2022-11-28T04:22:15.485Z,16.23
2022-11-28T04:22:55.374Z,9.57
2022-11-28T04:23:27.169Z,11.98
2022-11-28T04:24:04.143Z,12.38
2022-11-28T04:24:39.571Z,11.07
2022-11-28T04:25:15.032Z,14.35
2022-11-28T04:25:55.694Z,12.52
2022-11-28T04:26:38.912Z,13.95
2022-11-28T04:27:13.737Z,12.82
2022-11-28T04:27:49.066Z,12.57
2022-11-28T04:28:23.691Z,13.15
2022-11-28T04:28:56.765Z,11.90
2022-11-28T04:29:33.199Z,15.85
2022-11-28T04:30:05.728Z,14.27
2022-11-28T04:30:38.326Z,12.32
2022-11-28T04:31:09.941Z,15.07
2022-11-28T04:31:43.411Z,13.30
2022-11-28T04:32:16.376Z,13.68
2022-11-28T04:32:50.645Z,11.98
2022-11-28T04:33:24.210Z,17.20
2022-11-28T04:34:00.036Z,11.95
2022-11-28T04:34:33.240Z,15.68
2022-11-28T04:35:32.705Z,12.57
2022-11-28T04:36:05.643Z,14.90
2022-11-28T04:36:40.359Z,15.55
2022-11-28T04:37:16.893Z,13.95
2022-11-28T04:37:49.688Z,15.07
2022-11-28T04:38:23.607Z,12.98
2022-11-28T04:38:56.736Z,14.68
2022-11-28T04:39:32.752Z,18.50
2022-11-28T04:40:07.727Z,12.23
2022-11-28T04:40:49.190Z,14.23
2022-11-28T04:41:24.953Z,12.32
2022-11-28T04:42:03.174Z,10.20
2022-11-28T04:42:45.671Z,12.30
2022-11-28T04:43:28.235Z,13.05
2022-11-28T04:44:05.094Z,10.50
2022-11-28T04:44:52.140Z,18.42
2022-11-28T04:45:36.059Z,15.27
2022-11-28T04:46:13.427Z,14.20
2022-11-28T04:46:48.508Z,10.00
2022-11-28T04:47:20.049Z,15.52
2022-11-28T04:47:51.500Z,11.25
2022-11-28T04:48:23.193Z,12.90
2022-11-28T04:48:55.218Z,9.88
2022-11-28T04:49:28.390Z,11.23
2022-11-28T04:49:59.961Z,12.88
2022-11-28T04:50:42.653Z,12.27
2022-11-28T04:51:22.200Z,12.13
2022-11-28T04:52:30.997Z,14.55
2022-11-28T04:53:13.924Z,9.30
2022-11-28T04:54:01.257Z,9.48
2022-11-28T04:54:45.176Z,12.55
2022-11-28T04:55:43.068Z,14.02
2022-11-28T04:56:21.554Z,11.45
2022-11-28T04:56:58.109Z,11.07
2022-11-28T04:57:50.678Z,14.90
2022-11-28T04:58:39.798Z,11.82
2022-11-28T04:59:12.838Z,13.55
2022-11-28T04:59:44.497Z,9.55
2022-11-28T05:00:19.282Z,10.65
2022-11-28T05:00:53.147Z,12.15
2022-11-28T05:01:26.468Z,11.55
2022-11-28T05:01:58.877Z,10.43
2022-11-28T05:02:30.873Z,11.40
2022-11-28T05:03:02.914Z,12.48
2022-11-28T05:03:37.724Z,12.23
2022-11-28T05:04:13.068Z,10.95
2022-11-28T05:04:45.285Z,12.05
2022-11-28T05:05:19.663Z,14.15
2022-11-28T05:05:51.672Z,11.98
2022-11-28T05:06:31.153Z,11.70
2022-11-28T05:07:07.497Z,9.70
2022-11-28T05:07:39.111Z,12.00
2022-11-28T05:08:11.001Z,14.63
2022-11-28T05:08:42.458Z,10.98
2022-11-28T05:09:14.195Z,11.88
2022-11-28T05:09:45.636Z,11.45
2022-11-28T05:10:17.553Z,14.40
2022-11-28T05:10:49.253Z,10.20
2022-11-28T05:11:21.009Z,13.57
2022-11-28T05:11:52.475Z,12.93
2022-11-28T05:12:23.925Z,13.50
2022-11-28T05:12:55.439Z,10.90
2022-11-28T05:13:26.961Z,11.55
2022-11-28T05:13:58.642Z,11.27
2022-11-28T05:14:30.288Z,12.68
2022-11-28T05:15:01.819Z,12.27
2022-11-28T05:15:33.340Z,13.20
2022-11-28T05:16:05.834Z,15.77
2022-11-28T05:16:37.394Z,12.05
2022-11-28T05:17:11.991Z,12.48
2022-11-28T05:17:43.549Z,10.95
2022-11-28T05:18:15.112Z,12.07
2022-11-28T05:18:46.605Z,11.10
2022-11-28T05:19:18.417Z,10.82
2022-11-28T05:19:49.844Z,11.60
2022-11-28T05:20:21.365Z,10.60
2022-11-28T05:20:52.852Z,12.75
2022-11-28T05:21:24.384Z,12.35
2022-11-28T05:21:55.967Z,12.63
2022-11-28T05:22:27.505Z,9.77
2022-11-28T05:22:58.960Z,10.45
2022-11-28T05:23:30.413Z,14.07
2022-11-28T05:24:01.948Z,9.75
2022-11-28T05:24:33.406Z,11.90
2022-11-28T05:25:06.117Z,15.10
2022-11-28T05:25:39.814Z,12.63
2022-11-28T05:26:14.617Z,12.20
2022-11-28T05:26:46.134Z,12.02
2022-11-28T05:27:17.587Z,12.20
2022-11-28T05:27:49.145Z,12.18
2022-11-28T05:28:20.642Z,17.40
2022-11-28T05:28:52.574Z,15.25
2022-11-28T05:29:25.409Z,13.32
2022-11-28T05:29:56.836Z,11.65
2022-11-28T05:30:28.283Z,13.40
2022-11-28T05:31:00.918Z,16.67
2022-11-28T05:31:32.470Z,10.55
2022-11-28T05:32:04.473Z,12.10
2022-11-28T05:32:36.478Z,15.40
2022-11-28T05:33:07.945Z,12.40
2022-11-28T05:33:39.749Z,11.05
2022-11-28T05:34:11.254Z,15.15
2022-11-28T05:34:43.001Z,10.80
2022-11-28T05:35:14.855Z,12.43
2022-11-28T05:35:46.290Z,12.13
2022-11-28T05:36:17.961Z,11.35
2022-11-28T05:36:49.403Z,13.02
2022-11-28T05:37:20.833Z,13.88
2022-11-28T05:37:52.286Z,12.70
2022-11-28T05:38:23.902Z,11.55
2022-11-28T05:38:56.022Z,11.38
2022-11-28T05:39:27.666Z,11.75
2022-11-28T05:39:59.327Z,11.52
2022-11-28T05:40:30.805Z,12.48
2022-11-28T05:41:02.837Z,14.30
2022-11-28T05:41:34.732Z,16.33
2022-11-28T05:42:06.323Z,16.90
2022-11-28T05:42:37.821Z,13.07
2022-11-28T05:43:09.389Z,13.40
2022-11-28T05:43:40.855Z,10.60
2022-11-28T05:44:12.309Z,12.52
2022-11-28T05:44:43.867Z,12.00
2022-11-28T05:45:15.527Z,11.13
2022-11-28T05:45:47.080Z,11.75
2022-11-28T05:46:19.183Z,13.27
2022-11-28T05:46:50.818Z,16.98
2022-11-28T05:47:23.865Z,14.23
2022-11-28T05:47:55.383Z,12.27
2022-11-28T05:48:27.288Z,16.48
2022-11-28T05:48:58.823Z,12.38
2022-11-28T05:49:30.272Z,13.50
2022-11-28T05:50:01.740Z,18.65
2022-11-28T05:50:38.498Z,14.00
2022-11-28T05:51:11.651Z,15.25
2022-11-28T05:51:43.120Z,12.88
2022-11-28T05:52:14.568Z,13.45
2022-11-28T05:52:46.003Z,12.55
2022-11-28T05:53:19.271Z,14.35
2022-11-28T05:53:50.913Z,16.80
2022-11-28T05:54:22.500Z,12.68
2022-11-28T05:54:53.953Z,11.18
2022-11-28T05:55:25.495Z,18.70
2022-11-28T05:55:56.941Z,13.20
2022-11-28T05:56:28.454Z,12.13
2022-11-28T05:57:00.030Z,12.52
2022-11-28T05:57:32.119Z,11.45
2022-11-28T05:58:03.732Z,15.52
2022-11-28T05:58:35.385Z,14.82
2022-11-28T05:59:06.873Z,12.93
2022-11-28T05:59:38.353Z,16.92
2022-11-28T06:00:10.365Z,12.95
2022-11-28T06:00:45.127Z,13.10
2022-11-28T06:01:19.140Z,15.15
2022-11-28T06:01:50.748Z,15.45
2022-11-28T06:02:22.278Z,14.40
2022-11-28T06:02:58.401Z,12.25
2022-11-28T06:03:32.686Z,13.45
2022-11-28T06:04:04.263Z,17.27
2022-11-28T06:04:36.232Z,13.90
2022-11-28T06:05:27.641Z,11.68
2022-11-28T06:05:59.377Z,11.50
2022-11-28T06:06:33.545Z,15.25
2022-11-28T06:07:05.074Z,14.13
2022-11-28T06:07:36.593Z,16.75
2022-11-28T06:08:08.137Z,14.30
2022-11-28T06:08:40.440Z,11.60
2022-11-28T06:09:11.908Z,13.55
2022-11-28T06:09:43.473Z,14.25
2022-11-28T06:10:15.052Z,13.50
2022-11-28T06:10:56.281Z,13.23
2022-11-28T06:11:30.603Z,14.13
2022-11-28T06:12:02.263Z,11.85
2022-11-28T06:12:34.001Z,12.60
2022-11-28T06:13:05.535Z,12.23
2022-11-28T06:13:37.008Z,13.77
2022-11-28T06:14:09.879Z,12.90
2022-11-28T06:14:41.400Z,11.30
2022-11-28T06:15:12.889Z,10.70
2022-11-28T06:15:45.067Z,12.38
2022-11-28T06:16:20.289Z,14.23
2022-11-28T06:16:51.887Z,15.32
2022-11-28T06:17:23.534Z,13.43
2022-11-28T06:17:55.703Z,11.05
2022-11-28T06:18:27.252Z,12.18
2022-11-28T06:19:00.944Z,13.65
2022-11-28T06:19:32.644Z,14.75
2022-11-28T06:20:04.962Z,16.02
2022-11-28T06:20:36.487Z,14.00
2022-11-28T06:21:09.597Z,12.65
2022-11-28T06:21:41.119Z,12.68
2022-11-28T06:22:12.554Z,13.73
2022-11-28T06:22:46.553Z,15.35
2022-11-28T06:23:18.121Z,11.82
2022-11-28T06:23:49.756Z,11.50
2022-11-28T06:24:21.196Z,13.00
2022-11-28T06:24:52.665Z,12.70
2022-11-28T06:25:24.208Z,14.00
2022-11-28T06:25:55.653Z,12.32
2022-11-28T06:26:28.717Z,16.08
2022-11-28T06:27:00.190Z,13.13
2022-11-28T06:27:31.772Z,12.63
2022-11-28T06:28:03.341Z,13.48
2022-11-28T06:28:35.653Z,12.73
2022-11-28T06:29:07.108Z,12.73
2022-11-28T06:29:38.585Z,14.27
2022-11-28T06:30:10.215Z,12.27
2022-11-28T06:30:43.459Z,11.75
2022-11-28T06:31:25.248Z,14.13
2022-11-28T06:31:56.855Z,11.85
2022-11-28T06:32:28.465Z,12.13
2022-11-28T06:32:59.924Z,13.23
2022-11-28T06:33:31.452Z,15.02
2022-11-28T06:34:03.082Z,11.63
2022-11-28T06:34:34.586Z,16.48
2022-11-28T06:35:06.510Z,12.60
2022-11-28T06:35:37.958Z,12.18
2022-11-28T06:36:10.435Z,12.50
2022-11-28T06:36:43.109Z,12.38
2022-11-28T06:37:14.590Z,14.13
2022-11-28T06:37:46.037Z,15.48
2022-11-28T06:38:17.502Z,13.98
2022-11-28T06:38:49.121Z,12.55
2022-11-28T06:39:20.741Z,12.50
2022-11-28T06:39:52.287Z,11.85
2022-11-28T06:40:23.774Z,12.55
2022-11-28T06:40:59.933Z,12.18
2022-11-28T06:41:31.548Z,15.35
2022-11-28T06:42:03.215Z,16.75
2022-11-28T06:42:37.662Z,13.98
2022-11-28T06:43:09.101Z,13.05
2022-11-28T06:43:40.957Z,12.93
2022-11-28T06:44:14.582Z,12.32
2022-11-28T06:44:46.030Z,11.57
2022-11-28T06:45:17.991Z,12.70
2022-11-28T06:45:49.442Z,16.90
2022-11-28T06:46:21.757Z,12.13
2022-11-28T06:46:54.805Z,13.30
2022-11-28T06:47:26.232Z,11.45
2022-11-28T06:47:57.789Z,12.63
2022-11-28T06:48:29.553Z,11.68
2022-11-28T06:49:01.108Z,12.05
2022-11-28T06:49:32.605Z,12.15
2022-11-28T06:50:04.437Z,12.93
2022-11-28T06:50:35.875Z,13.80
2022-11-28T06:51:07.445Z,12.80
2022-11-28T06:51:40.397Z,11.57
2022-11-28T06:52:11.867Z,12.90
2022-11-28T06:52:43.295Z,12.45
2022-11-28T06:53:14.764Z,11.35
2022-11-28T06:53:46.309Z,12.50
2022-11-28T06:54:17.746Z,12.07
2022-11-28T06:54:49.351Z,12.70
2022-11-28T06:55:20.875Z,13.88
2022-11-28T06:55:52.337Z,14.07
2022-11-28T06:56:23.906Z,13.85
2022-11-28T06:56:55.421Z,11.02
2022-11-28T06:57:28.082Z,13.27
2022-11-28T06:57:59.510Z,11.80
2022-11-28T06:58:30.961Z,13.52
2022-11-28T06:59:02.457Z,13.02
2022-11-28T06:59:34.061Z,11.70
2022-11-28T07:00:06.442Z,13.98
2022-11-28T07:00:38.502Z,11.35
2022-11-28T07:01:13.315Z,15.05
2022-11-28T07:01:45.281Z,12.07
2022-11-28T07:02:17.125Z,11.85
2022-11-28T07:02:48.795Z,13.18
2022-11-28T07:03:20.277Z,12.70
2022-11-28T07:03:54.331Z,16.88
2022-11-28T07:04:25.793Z,13.75
2022-11-28T07:04:57.254Z,12.63
2022-11-28T07:05:28.761Z,11.95
2022-11-28T07:06:02.129Z,12.18
2022-11-28T07:06:34.266Z,13.45
2022-11-28T07:07:05.742Z,12.82
2022-11-28T07:07:50.194Z,11.77
2022-11-28T07:08:25.492Z,13.40
2022-11-28T07:08:58.271Z,11.82
2022-11-28T07:09:29.887Z,13.05
2022-11-28T07:10:01.386Z,12.40
2022-11-28T07:10:33.243Z,12.20
2022-11-28T07:11:32.097Z,13.05
2022-11-28T07:12:03.704Z,12.95
2022-11-28T07:12:35.304Z,13.60
2022-11-28T07:13:07.537Z,12.57
2022-11-28T07:13:40.413Z,12.05
2022-11-28T07:14:12.033Z,11.80
2022-11-28T07:14:43.591Z,13.00
2022-11-28T07:15:15.141Z,13.60
2022-11-28T07:15:50.905Z,11.50
2022-11-28T07:16:25.246Z,15.70
2022-11-28T07:16:56.756Z,13.13
2022-11-28T07:17:28.252Z,12.48
2022-11-28T07:17:59.676Z,16.63
2022-11-28T07:18:31.730Z,12.48
2022-11-28T07:19:04.193Z,17.33
2022-11-28T07:19:35.971Z,11.10
2022-11-28T07:20:08.168Z,14.48
2022-11-28T07:20:39.645Z,14.48
2022-11-28T07:21:11.649Z,13.13
2022-11-28T07:21:43.149Z,12.85
2022-11-28T07:22:14.786Z,12.75
2022-11-28T07:22:48.126Z,13.88
2022-11-28T07:23:19.589Z,13.65
2022-11-28T07:23:51.554Z,15.45
2022-11-28T07:24:23.269Z,13.82
2022-11-28T07:24:54.734Z,12.07
2022-11-28T07:25:26.264Z,12.90
2022-11-28T07:25:59.894Z,13.85
2022-11-28T07:26:31.401Z,13.90
2022-11-28T07:27:02.911Z,14.27
2022-11-28T07:27:34.369Z,17.17
2022-11-28T07:28:06.029Z,13.13
2022-11-28T07:28:37.716Z,13.38
2022-11-28T07:29:14.560Z,13.77
2022-11-28T07:29:46.050Z,14.07
2022-11-28T07:30:17.590Z,13.15
2022-11-28T07:30:49.103Z,14.50
2022-11-28T07:31:25.416Z,13.55
2022-11-28T07:31:56.953Z,13.48
2022-11-28T07:32:28.520Z,13.48
2022-11-28T07:33:00.054Z,13.48
2022-11-28T07:33:31.965Z,15.00
2022-11-28T07:34:03.689Z,14.65
2022-11-28T07:34:35.357Z,17.30
2022-11-28T07:35:08.716Z,15.82
2022-11-28T07:35:40.188Z,14.35
2022-11-28T07:36:13.950Z,16.23
2022-11-28T07:36:45.446Z,13.40
2022-11-28T07:37:16.952Z,13.35
2022-11-28T07:37:48.482Z,16.38
2022-11-28T07:38:19.938Z,13.50
2022-11-28T07:38:56.992Z,14.50
2022-11-28T07:39:28.456Z,14.00
2022-11-28T07:39:59.925Z,15.32
2022-11-28T07:40:31.381Z,14.35
2022-11-28T07:41:11.139Z,17.73
2022-11-28T07:41:42.697Z,14.60
2022-11-28T07:42:14.176Z,15.00
2022-11-28T07:42:46.134Z,14.48
2022-11-28T07:43:18.130Z,15.30
2022-11-28T07:43:52.836Z,18.83
2022-11-28T07:44:24.313Z,14.25